Time;durP1;ratioP1;P1;durP2;ratioP2;P2;SDS_P1;SDS_P2;PMS_P1;PMS_P2;Temp;Humidity;BMP_temperature;BMP_pressure;BME280_temperature;BME280_humidity;BME280_pressure;Samples;Min_cycle;Max_cycle;Signal;HPM_P1;HPM_P2
2023/12/06 00:01:30;;;;;;;55.10;51.85;;;;;;;5.57;66.58;100982.22;5012545;28;20025;-73
2023/12/06 00:03:55;;;;;;;52.60;49.33;;;;;;;5.57;66.74;100990.28;5017284;28;20045;-73
2023/12/06 00:06:21;;;;;;;54.88;52.05;;;;;;;5.57;66.55;100989.47;5033357;28;20103;-73
2023/12/06 00:08:46;;;;;;;53.25;49.67;;;;;;;5.57;66.58;100989.47;5043026;28;20033;-74
2023/12/06 00:11:12;;;;;;;50.38;47.65;;;;;;;5.57;66.81;100994.81;5032890;28;20025;-73
2023/12/06 00:13:37;;;;;;;56.38;53.10;;;;;;;5.57;66.88;100997.50;5028542;28;20036;-73
2023/12/06 00:16:03;;;;;;;51.78;48.13;;;;;;;5.57;66.82;100994.81;5021677;28;20052;-73
2023/12/06 00:18:29;;;;;;;56.50;53.47;;;;;;;5.56;67.00;100996.66;5024333;28;20030;-72
2023/12/06 00:20:54;;;;;;;58.42;54.95;;;;;;;5.57;66.82;101002.84;5030291;28;20073;-75
2023/12/06 00:23:20;;;;;;;48.33;45.70;;;;;;;5.55;66.96;100996.88;5024376;28;20474;-74
2023/12/06 00:25:45;;;;;;;50.60;47.80;;;;;;;5.55;66.92;100999.53;5030725;28;20405;-73
2023/12/06 00:28:10;;;;;;;53.45;50.53;;;;;;;5.55;66.82;100996.88;5012256;28;20125;-73
2023/12/06 00:30:36;;;;;;;53.53;50.42;;;;;;;5.55;66.96;100996.88;5019653;28;20041;-73
2023/12/06 00:33:03;;;;;;;48.80;46.45;;;;;;;5.56;66.84;101003.88;5025506;28;20466;-73
2023/12/06 00:35:28;;;;;;;51.25;48.65;;;;;;;5.56;66.79;101003.88;5032344;28;20044;-73
2023/12/06 00:37:54;;;;;;;51.17;48.53;;;;;;;5.56;66.68;101014.59;5029856;28;20454;-73
2023/12/06 00:40:19;;;;;;;50.67;48.10;;;;;;;5.56;67.00;101015.41;5033847;28;20469;-74
2023/12/06 00:42:44;;;;;;;53.55;49.97;;;;;;;5.54;66.83;101006.72;5000833;28;20051;-74
2023/12/06 00:45:10;;;;;;;51.78;49.25;;;;;;;5.54;66.77;101016.63;5019448;28;20042;-73
2023/12/06 00:47:36;;;;;;;54.45;51.20;;;;;;;5.54;66.85;101027.34;5034983;28;20107;-74
2023/12/06 00:50:03;;;;;;;49.78;47.03;;;;;;;5.54;66.92;101033.53;5038072;28;20033;-73
2023/12/06 00:52:28;;;;;;;52.45;49.85;;;;;;;5.54;67.02;101030.03;5031937;28;20116;-75
2023/12/06 00:54:53;;;;;;;48.53;46.10;;;;;;;5.54;66.63;101036.22;5035504;28;20112;-74
2023/12/06 00:57:19;;;;;;;53.38;50.60;;;;;;;5.54;66.97;101035.38;5016518;28;20037;-73
2023/12/06 00:59:44;;;;;;;49.33;46.67;;;;;;;5.55;66.82;101045.09;5028602;28;20397;-73
2023/12/06 01:02:10;;;;;;;49.70;47.30;;;;;;;5.55;67.11;101035.19;5023121;28;20037;-73
2023/12/06 01:04:36;;;;;;;55.03;51.80;;;;;;;5.55;66.91;101045.91;5034055;28;20045;-73
2023/12/06 01:07:02;;;;;;;49.88;47.38;;;;;;;5.56;66.73;101050.22;5019263;28;20064;-73
2023/12/06 01:09:27;;;;;;;53.72;50.97;;;;;;;5.55;66.90;101055.81;5029053;28;20480;-73
2023/12/06 01:11:53;;;;;;;49.72;47.17;;;;;;;5.55;66.99;101055.81;5027316;28;20091;-74
2023/12/06 01:14:18;;;;;;;51.40;48.78;;;;;;;5.55;67.00;101058.50;5059536;28;20331;-75
2023/12/06 01:16:44;;;;;;;53.05;50.25;;;;;;;5.54;66.94;101059.50;5029894;28;20473;-72
2023/12/06 01:19:09;;;;;;;50.25;47.85;;;;;;;5.55;66.87;101067.34;5027619;28;20034;-72
2023/12/06 01:21:35;;;;;;;51.13;48.50;;;;;;;5.53;66.67;101056.00;5011391;28;20061;-71
2023/12/06 01:24:00;;;;;;;50.83;48.13;;;;;;;5.54;66.69;101054.16;5025952;28;20037;-74
2023/12/06 01:26:25;;;;;;;52.28;49.53;;;;;;;5.54;67.06;101063.00;5017014;28;20033;-72
2023/12/06 01:28:51;;;;;;;53.55;50.38;;;;;;;5.54;66.93;101071.03;5041295;28;20044;-72
2023/12/06 01:31:16;;;;;;;54.45;51.53;;;;;;;5.53;66.84;101066.72;5026081;28;20466;-72
2023/12/06 01:33:41;;;;;;;54.08;50.88;;;;;;;5.54;66.80;101070.22;5021470;28;20120;-72
2023/12/06 01:36:07;;;;;;;51.83;49.05;;;;;;;5.53;66.78;101076.63;5021219;28;20478;-72
2023/12/06 01:38:33;;;;;;;55.05;52.00;;;;;;;5.53;66.71;101076.63;5034075;28;20273;-72
2023/12/06 01:40:58;;;;;;;52.92;48.85;;;;;;;5.52;66.74;101083.84;5029108;28;20037;-72
2023/12/06 01:43:23;;;;;;;55.00;52.03;;;;;;;5.52;66.80;101091.88;5030377;28;20116;-71
2023/12/06 01:45:49;;;;;;;55.65;52.78;;;;;;;5.51;66.84;101082.16;5015255;28;20030;-71
2023/12/06 01:48:16;;;;;;;51.28;48.85;;;;;;;5.51;66.86;101095.56;5024470;28;20092;-72
2023/12/06 01:50:42;;;;;;;53.85;50.92;;;;;;;5.51;66.62;101092.88;5030785;28;20037;-72
2023/12/06 01:53:08;;;;;;;54.00;51.42;;;;;;;5.52;66.86;101094.56;5029474;28;20029;-72
2023/12/06 01:55:34;;;;;;;50.45;47.95;;;;;;;5.52;66.78;101097.25;5028492;28;20044;-72
2023/12/06 01:58:00;;;;;;;53.28;50.33;;;;;;;5.52;66.83;101104.44;5031029;28;20036;-72
2023/12/06 02:00:25;;;;;;;50.40;47.70;;;;;;;5.52;66.81;101112.47;5031569;28;20041;-72
2023/12/06 02:02:51;;;;;;;51.63;48.80;;;;;;;5.52;66.50;101107.09;5031895;28;20048;-72
2023/12/06 02:05:19;;;;;;;51.17;48.55;;;;;;;5.51;66.58;101108.97;5023842;28;20026;-72
2023/12/06 02:07:45;;;;;;;57.10;53.45;;;;;;;5.51;67.08;101116.19;5028666;28;20041;-72
2023/12/06 02:10:11;;;;;;;52.30;49.63;;;;;;;5.51;66.63;101116.19;5034100;28;20050;-72
2023/12/06 02:12:36;;;;;;;56.28;53.10;;;;;;;5.50;66.74;101110.00;5024802;28;20481;-72
2023/12/06 02:15:02;;;;;;;51.95;49.45;;;;;;;5.50;66.96;101107.31;5023714;28;20037;-72
2023/12/06 02:17:28;;;;;;;53.72;50.95;;;;;;;5.50;66.97;101117.22;5018903;28;20057;-72
2023/12/06 02:19:54;;;;;;;58.95;55.85;;;;;;;5.49;66.98;101121.72;5029401;28;20099;-72
2023/12/06 02:22:22;;;;;;;52.25;49.53;;;;;;;5.50;66.96;101114.53;5025582;28;20048;-71
2023/12/06 02:24:51;;;;;;;53.08;49.38;;;;;;;5.49;66.77;101105.66;5028331;28;20036;-72
2023/12/06 02:27:16;;;;;;;50.30;47.88;;;;;;;5.50;66.90;101106.50;5030875;28;20037;-72
2023/12/06 02:29:42;;;;;;;51.45;48.97;;;;;;;5.50;66.74;101115.38;5038898;28;20030;-72
2023/12/06 02:32:07;;;;;;;52.30;49.72;;;;;;;5.50;66.85;101114.53;5064239;28;20034;-72
2023/12/06 02:34:34;;;;;;;53.92;51.22;;;;;;;5.50;66.73;101115.38;5031583;28;20045;-72
2023/12/06 02:37:03;;;;;;;48.95;46.47;;;;;;;5.51;66.80;101118.88;5014723;28;20045;-72
2023/12/06 02:39:34;;;;;;;51.85;48.60;;;;;;;5.51;67.05;101126.91;5032721;28;20087;-72
2023/12/06 02:41:59;;;;;;;55.88;52.78;;;;;;;5.51;66.58;101129.56;5031451;28;20040;-72
2023/12/06 02:44:25;;;;;;;52.72;49.97;;;;;;;5.51;66.63;101117.00;5031706;28;20034;-72
2023/12/06 02:46:50;;;;;;;52.63;49.80;;;;;;;5.51;66.53;101117.00;5031900;28;20087;-71
2023/12/06 02:49:16;;;;;;;50.95;48.10;;;;;;;5.52;66.93;101116.00;5031943;28;20037;-72
2023/12/06 02:51:41;;;;;;;49.78;47.22;;;;;;;5.53;66.72;101108.78;5031705;28;20155;-73
2023/12/06 02:54:07;;;;;;;52.90;50.13;;;;;;;5.53;66.75;101108.78;5030128;28;20112;-72
2023/12/06 02:56:32;;;;;;;50.97;48.00;;;;;;;5.54;66.85;101115.78;5028119;28;20374;-72
2023/12/06 02:58:57;;;;;;;51.70;48.92;;;;;;;5.53;66.71;101122.16;5021058;28;20074;-72
2023/12/06 03:01:23;;;;;;;51.63;48.72;;;;;;;5.53;66.70;101125.66;5014390;28;20045;-72
2023/12/06 03:03:48;;;;;;;58.38;55.10;;;;;;;5.54;66.59;101135.34;5027187;28;20033;-72
2023/12/06 03:06:14;;;;;;;54.78;51.78;;;;;;;5.53;66.68;101130.22;5031593;28;20124;-72
2023/12/06 03:08:39;;;;;;;54.15;51.28;;;;;;;5.54;66.55;101132.69;5041083;28;20041;-72
2023/12/06 03:11:04;;;;;;;57.17;54.15;;;;;;;5.54;66.61;101121.97;5026842;28;20060;-72
2023/12/06 03:13:30;;;;;;;47.88;45.05;;;;;;;5.55;66.75;101128.16;5033069;28;20109;-72
2023/12/06 03:15:56;;;;;;;54.42;51.42;;;;;;;5.54;66.68;101130.00;5025791;28;20116;-72
2023/12/06 03:18:21;;;;;;;56.17;53.28;;;;;;;5.54;66.68;101126.50;5015640;28;20348;-72
2023/12/06 03:20:47;;;;;;;51.55;49.08;;;;;;;5.53;66.61;101131.03;5030769;28;20034;-73
2023/12/06 03:23:12;;;;;;;55.28;52.38;;;;;;;5.54;66.85;101130.00;5031577;28;20039;-74
2023/12/06 03:25:38;;;;;;;54.85;51.85;;;;;;;5.55;66.63;101134.34;5031869;28;20041;-72
2023/12/06 03:28:04;;;;;;;52.05;49.22;;;;;;;5.55;66.85;101130.84;5017191;28;20613;-71
2023/12/06 03:30:29;;;;;;;51.28;48.05;;;;;;;5.56;66.47;101132.47;5015883;28;20088;-71
2023/12/06 03:32:54;;;;;;;50.95;48.03;;;;;;;5.55;66.65;101134.34;5041288;28;20111;-71
2023/12/06 03:35:20;;;;;;;52.25;49.17;;;;;;;5.54;66.42;101134.53;5023007;28;20497;-72
2023/12/06 03:37:45;;;;;;;52.15;49.10;;;;;;;5.55;66.61;101139.72;5014478;28;20048;-73
2023/12/06 03:40:11;;;;;;;57.67;54.05;;;;;;;5.56;66.57;101135.16;5032366;28;20436;-72
2023/12/06 03:42:37;;;;;;;51.80;49.03;;;;;;;5.55;66.57;101139.72;5011296;28;20036;-72
2023/12/06 03:45:03;;;;;;;53.60;50.80;;;;;;;5.55;66.85;101142.38;5013129;28;20038;-72
2023/12/06 03:47:28;;;;;;;51.30;48.13;;;;;;;5.56;66.74;101145.88;5031514;28;20033;-72
2023/12/06 03:49:54;;;;;;;54.17;51.30;;;;;;;5.56;66.67;101143.22;5014403;28;20429;-72
2023/12/06 03:52:19;;;;;;;54.85;51.67;;;;;;;5.56;66.80;101149.38;5030014;28;20485;-72
2023/12/06 03:54:44;;;;;;;46.22;43.85;;;;;;;5.56;66.86;101137.84;5033541;28;20057;-73
2023/12/06 03:57:10;;;;;;;56.15;53.00;;;;;;;5.56;66.81;101144.03;5027384;28;20040;-73
2023/12/06 03:59:35;;;;;;;57.30;53.72;;;;;;;5.56;66.67;101145.88;5027713;28;20037;-72
2023/12/06 04:02:01;;;;;;;53.85;50.85;;;;;;;5.57;66.79;101150.25;5022700;28;20072;-74
2023/12/06 04:04:26;;;;;;;53.80;50.47;;;;;;;5.57;66.89;101148.38;5032395;28;20427;-74
2023/12/06 04:06:52;;;;;;;56.10;53.03;;;;;;;5.56;66.68;101140.53;5020449;28;20163;-73
2023/12/06 04:09:17;;;;;;;47.80;45.35;;;;;;;5.55;66.66;101142.38;5021389;28;20061;-72
2023/12/06 04:11:43;;;;;;;51.47;48.40;;;;;;;5.56;66.47;101148.56;5016498;28;20037;-72
2023/12/06 04:14:09;;;;;;;54.50;51.42;;;;;;;5.57;66.80;101150.25;5030563;28;20449;-73
2023/12/06 04:16:36;;;;;;;54.30;50.70;;;;;;;5.56;66.68;101152.06;5022598;28;20439;-73
2023/12/06 04:19:02;;;;;;;53.47;50.58;;;;;;;5.57;66.82;101159.09;5023113;28;20044;-73
2023/12/06 04:21:28;;;;;;;56.75;53.55;;;;;;;5.58;66.67;101160.75;5030485;28;20030;-73
2023/12/06 04:23:53;;;;;;;50.72;48.00;;;;;;;5.57;66.65;101160.97;5031304;28;20430;-72
2023/12/06 04:26:19;;;;;;;54.72;51.80;;;;;;;5.57;66.72;101159.09;5032212;28;20037;-72
2023/12/06 04:28:44;;;;;;;54.33;51.38;;;;;;;5.57;66.58;101156.41;5029916;28;20037;-72
2023/12/06 04:31:09;;;;;;;53.53;50.53;;;;;;;5.58;66.83;101159.91;5029773;28;20477;-72
2023/12/06 04:33:35;;;;;;;51.90;48.60;;;;;;;5.57;66.86;101164.47;5027742;28;20053;-72
2023/12/06 04:36:00;;;;;;;52.53;49.63;;;;;;;5.58;66.59;101167.97;5041272;28;20061;-72
2023/12/06 04:38:26;;;;;;;52.00;48.83;;;;;;;5.59;66.55;101172.28;5021291;28;20057;-72
2023/12/06 04:40:51;;;;;;;52.08;48.70;;;;;;;5.59;66.78;101174.97;5021159;28;20057;-74
2023/12/06 04:43:17;;;;;;;50.15;47.28;;;;;;;5.59;67.13;101180.31;5031617;28;20033;-73
2023/12/06 04:45:43;;;;;;;57.35;53.60;;;;;;;5.60;66.61;101188.16;5029753;28;20498;-73
2023/12/06 04:48:09;;;;;;;58.60;54.97;;;;;;;5.60;66.48;101188.16;5020628;28;20029;-73
2023/12/06 04:50:34;;;;;;;57.60;53.83;;;;;;;5.61;66.76;101178.28;5032746;28;20122;-72
2023/12/06 04:53:00;;;;;;;55.95;52.58;;;;;;;5.61;66.66;101194.34;5020338;28;20048;-73
2023/12/06 04:55:25;;;;;;;55.90;52.70;;;;;;;5.60;66.93;101188.16;5030549;28;20044;-73
2023/12/06 04:57:51;;;;;;;54.35;51.25;;;;;;;5.61;66.68;101187.13;5033271;28;20046;-72
2023/12/06 05:00:17;;;;;;;53.05;49.88;;;;;;;5.61;66.91;101199.72;5060769;28;20057;-73
2023/12/06 05:02:43;;;;;;;54.55;51.75;;;;;;;5.62;66.66;101196.03;5014205;28;20096;-72
2023/12/06 05:05:08;;;;;;;52.88;49.88;;;;;;;5.61;66.81;101197.03;5021129;28;20042;-73
2023/12/06 05:07:34;;;;;;;51.42;48.53;;;;;;;5.62;66.79;101202.19;5034808;28;20034;-73
2023/12/06 05:09:59;;;;;;;53.67;50.50;;;;;;;5.63;66.74;101208.38;5009109;28;20136;-73
2023/12/06 05:12:24;;;;;;;54.80;51.90;;;;;;;5.62;66.79;101212.91;5022620;28;20466;-73
2023/12/06 05:14:50;;;;;;;54.05;49.97;;;;;;;5.64;66.75;101215.38;5038367;28;20061;-72
2023/12/06 05:17:15;;;;;;;56.97;53.65;;;;;;;5.63;66.93;101216.44;5012871;28;20065;-73
2023/12/06 05:19:40;;;;;;;53.60;50.33;;;;;;;5.64;66.67;101212.69;5020650;28;20038;-73
2023/12/06 05:22:06;;;;;;;56.08;52.97;;;;;;;5.64;66.94;101218.91;5029150;28;20030;-73
2023/12/06 05:24:31;;;;;;;45.33;43.13;;;;;;;5.66;66.91;101234.78;5032669;28;20384;-73
2023/12/06 05:26:57;;;;;;;52.50;49.47;;;;;;;5.66;66.90;101239.31;5029298;28;20144;-73
2023/12/06 05:29:22;;;;;;;50.42;47.40;;;;;;;5.66;66.78;101234.78;5030573;28;20478;-72
2023/12/06 05:31:47;;;;;;;56.20;53.15;;;;;;;5.66;67.06;101232.09;5024373;28;20030;-72
2023/12/06 05:34:13;;;;;;;56.78;53.33;;;;;;;5.67;66.63;101238.28;5028577;28;20068;-74
2023/12/06 05:36:38;;;;;;;53.25;50.33;;;;;;;5.68;66.80;101237.28;5023316;28;20069;-72
2023/12/06 05:39:05;;;;;;;60.92;57.53;;;;;;;5.69;67.05;101239.75;5013843;28;20393;-72
2023/12/06 05:41:31;;;;;;;50.75;48.25;;;;;;;5.70;67.01;101240.59;5031220;28;20119;-73
2023/12/06 05:43:56;;;;;;;54.17;51.10;;;;;;;5.70;66.83;101238.72;5034038;28;20503;-74
2023/12/06 05:46:22;;;;;;;55.05;52.15;;;;;;;5.70;66.73;101240.59;5033837;28;20391;-73
2023/12/06 05:48:47;;;;;;;53.03;50.00;;;;;;;5.70;66.86;101246.78;5029482;28;20038;-73
2023/12/06 05:51:13;;;;;;;51.15;48.22;;;;;;;5.70;66.90;101246.78;5025748;28;20045;-74
2023/12/06 05:53:39;;;;;;;57.25;53.85;;;;;;;5.71;66.73;101250.28;5027722;28;20041;-74
2023/12/06 05:56:09;;;;;;;55.33;52.20;;;;;;;5.72;66.81;101246.56;5028530;28;20041;-74
2023/12/06 05:58:35;;;;;;;53.70;50.85;;;;;;;5.73;66.88;101248.22;5037498;28;20021;-74
2023/12/06 06:01:00;;;;;;;55.85;52.90;;;;;;;5.73;66.84;101243.69;5023719;28;20451;-74
2023/12/06 06:03:26;;;;;;;58.20;55.08;;;;;;;5.73;66.88;101246.38;5029170;28;20091;-73
2023/12/06 06:05:51;;;;;;;58.22;55.10;;;;;;;5.73;66.84;101254.41;5031251;28;20033;-74
2023/12/06 06:08:17;;;;;;;60.75;57.15;;;;;;;5.75;67.14;101256.91;5032246;28;20041;-73
2023/12/06 06:10:42;;;;;;;56.15;53.05;;;;;;;5.75;66.98;101256.91;5032359;28;20053;-73
2023/12/06 06:13:08;;;;;;;54.30;51.17;;;;;;;5.75;66.84;101255.03;5032108;28;20049;-75
2023/12/06 06:15:33;;;;;;;54.85;51.78;;;;;;;5.75;67.11;101263.09;5042603;28;20026;-73
2023/12/06 06:17:59;;;;;;;57.92;54.80;;;;;;;5.76;66.76;101266.59;5030912;28;20113;-72
2023/12/06 06:20:24;;;;;;;55.28;52.17;;;;;;;5.76;67.01;101267.41;5030398;28;20497;-73
2023/12/06 06:22:49;;;;;;;57.92;55.03;;;;;;;5.77;66.82;101276.28;5021686;28;20025;-73
2023/12/06 06:25:15;;;;;;;57.33;54.20;;;;;;;5.77;66.76;101273.59;5032262;28;20501;-73
2023/12/06 06:27:40;;;;;;;55.00;51.80;;;;;;;5.78;66.91;101272.59;5061615;28;20032;-73
2023/12/06 06:30:06;;;;;;;54.35;51.22;;;;;;;5.78;67.07;101277.94;5015751;28;20053;-73
2023/12/06 06:32:32;;;;;;;58.05;55.05;;;;;;;5.78;66.94;101276.09;5024316;28;20033;-73
2023/12/06 06:34:57;;;;;;;55.15;51.50;;;;;;;5.79;66.76;101267.00;5032769;28;20045;-73
2023/12/06 06:37:22;;;;;;;59.75;56.35;;;;;;;5.79;66.91;101264.31;5011226;28;20109;-73
2023/12/06 06:39:48;;;;;;;59.80;55.75;;;;;;;5.81;66.99;101270.31;5027060;28;20030;-73
2023/12/06 06:42:13;;;;;;;59.92;56.70;;;;;;;5.80;66.99;101268.69;5022109;28;20421;-73
2023/12/06 06:44:40;;;;;;;58.38;55.13;;;;;;;5.80;66.87;101274.03;5020522;28;20049;-73
2023/12/06 06:47:06;;;;;;;57.58;54.15;;;;;;;5.82;67.07;101276.50;5014732;28;20362;-73
2023/12/06 06:49:32;;;;;;;55.30;51.53;;;;;;;5.82;67.20;101279.19;5023277;28;20485;-73
2023/12/06 06:51:57;;;;;;;53.63;50.65;;;;;;;5.82;66.86;101280.03;5014462;28;20034;-73
2023/12/06 06:54:22;;;;;;;56.78;53.10;;;;;;;5.83;66.60;101288.91;5026214;28;20103;-75
2023/12/06 06:56:48;;;;;;;53.65;50.38;;;;;;;5.84;67.07;101288.69;5032871;28;20057;-72
2023/12/06 06:59:13;;;;;;;59.22;55.83;;;;;;;5.85;66.87;101294.91;5033408;28;20124;-73
2023/12/06 07:01:39;;;;;;;51.40;48.25;;;;;;;5.85;66.83;101292.22;5028723;28;20108;-72
2023/12/06 07:04:05;;;;;;;60.10;56.80;;;;;;;5.85;66.86;101298.41;5017671;28;20069;-74
2023/12/06 07:06:30;;;;;;;60.90;57.30;;;;;;;5.86;66.76;101288.50;5032087;28;20030;-72
2023/12/06 07:08:55;;;;;;;53.05;50.45;;;;;;;5.86;66.88;101281.28;5031978;28;20083;-71
2023/12/06 07:11:21;;;;;;;55.85;52.65;;;;;;;5.86;67.01;101294.69;5053143;28;20090;-71
2023/12/06 07:13:48;;;;;;;58.38;55.00;;;;;;;5.88;66.63;101301.72;5031889;28;20026;-71
2023/12/06 07:16:13;;;;;;;53.72;50.65;;;;;;;5.88;66.79;101299.03;5029947;28;20107;-70
2023/12/06 07:18:38;;;;;;;55.30;51.65;;;;;;;5.88;66.70;101312.44;5033590;28;20133;-70
2023/12/06 07:21:04;;;;;;;60.08;56.75;;;;;;;5.86;66.79;101313.47;5026939;28;20061;-70
2023/12/06 07:23:29;;;;;;;60.58;57.33;;;;;;;5.88;66.91;101313.28;5031361;28;20029;-71
2023/12/06 07:25:55;;;;;;;53.58;50.47;;;;;;;5.88;66.96;101321.31;5025285;28;20077;-70
2023/12/06 07:28:21;;;;;;;55.70;52.70;;;;;;;5.89;66.81;101316.78;5028153;28;20032;-71
2023/12/06 07:30:46;;;;;;;55.67;52.45;;;;;;;5.89;66.82;101312.22;5019101;28;20041;-70
2023/12/06 07:33:12;;;;;;;53.97;50.67;;;;;;;5.89;67.02;101311.41;5022723;28;20390;-71
2023/12/06 07:35:37;;;;;;;60.15;56.92;;;;;;;5.89;66.97;101327.50;5025234;28;20074;-72
2023/12/06 07:38:05;;;;;;;52.45;49.40;;;;;;;5.89;66.67;101322.94;5031655;28;20323;-70
2023/12/06 07:40:30;;;;;;;63.70;60.13;;;;;;;5.89;66.72;101324.81;5026001;28;20420;-70
2023/12/06 07:42:56;;;;;;;55.38;52.50;;;;;;;5.90;66.84;101326.50;5026062;28;20037;-70
2023/12/06 07:45:22;;;;;;;57.70;54.20;;;;;;;5.89;66.86;101320.28;5025922;28;20029;-70
2023/12/06 07:47:48;;;;;;;60.83;57.28;;;;;;;5.90;67.04;101327.31;5026760;28;20041;-71
2023/12/06 07:50:13;;;;;;;62.42;58.80;;;;;;;5.89;67.03;101328.31;5027872;28;20061;-70
2023/12/06 07:52:39;;;;;;;58.92;55.63;;;;;;;5.91;67.00;101333.50;5027277;28;20048;-71
2023/12/06 07:55:06;;;;;;;55.58;52.35;;;;;;;5.90;66.51;101338.03;5029106;28;20152;-71
2023/12/06 07:57:33;;;;;;;53.78;50.97;;;;;;;5.91;66.67;101336.19;5032467;28;20041;-71
2023/12/06 07:59:58;;;;;;;56.60;53.83;;;;;;;5.90;66.76;101343.41;5026638;28;20033;-70
2023/12/06 08:02:25;;;;;;;58.80;55.75;;;;;;;5.90;66.75;101342.56;5027449;28;20423;-71
2023/12/06 08:04:50;;;;;;;60.13;56.85;;;;;;;5.91;66.88;101341.53;5027469;28;20112;-70
2023/12/06 08:07:16;;;;;;;56.78;53.63;;;;;;;5.92;66.62;101348.53;5028719;28;20454;-71
2023/12/06 08:09:41;;;;;;;60.63;57.47;;;;;;;5.91;66.95;101346.91;5028518;28;20061;-71
2023/12/06 08:12:07;;;;;;;61.10;57.80;;;;;;;5.91;66.58;101346.91;5024595;28;20064;-73
2023/12/06 08:14:33;;;;;;;57.47;54.60;;;;;;;5.90;66.65;101342.56;5028762;28;20037;-71
2023/12/06 08:16:58;;;;;;;55.38;52.30;;;;;;;5.89;66.44;101341.72;5026304;28;20409;-72
2023/12/06 08:19:24;;;;;;;59.65;56.42;;;;;;;5.91;66.85;101360.31;5010740;28;20098;-71
2023/12/06 08:21:49;;;;;;;56.30;53.10;;;;;;;5.89;66.80;101355.13;5023328;28;20409;-70
2023/12/06 08:24:15;;;;;;;57.50;54.22;;;;;;;5.89;66.89;101357.81;5024941;28;20041;-71
2023/12/06 08:26:41;;;;;;;61.72;57.72;;;;;;;5.91;66.78;101360.31;5008903;28;20052;-72
2023/12/06 08:29:07;;;;;;;62.42;58.75;;;;;;;5.90;66.99;101361.34;5025813;28;20064;-71
2023/12/06 08:31:32;;;;;;;52.22;49.53;;;;;;;5.90;66.83;101370.22;5027139;28;20029;-71
2023/12/06 08:33:58;;;;;;;49.05;46.53;;;;;;;5.90;66.76;101364.03;5025512;28;20034;-72
2023/12/06 08:36:24;;;;;;;61.08;57.22;;;;;;;5.90;66.80;101369.38;5022749;28;20438;-70
2023/12/06 08:38:49;;;;;;;57.78;54.38;;;;;;;5.90;66.65;101374.75;5026915;28;20025;-71
2023/12/06 08:41:15;;;;;;;57.08;53.78;;;;;;;5.91;66.77;101376.41;5018240;28;20505;-71
2023/12/06 08:43:41;;;;;;;54.40;51.70;;;;;;;5.89;66.79;101379.25;5024011;28;20037;-71
2023/12/06 08:46:07;;;;;;;56.38;53.55;;;;;;;5.89;66.69;101381.13;5025638;28;20477;-72
2023/12/06 08:48:33;;;;;;;52.90;49.88;;;;;;;5.88;66.71;101382.16;5021295;28;20500;-70
2023/12/06 08:50:59;;;;;;;57.05;53.83;;;;;;;5.88;66.73;101382.97;5029516;28;20041;-71
2023/12/06 08:53:24;;;;;;;54.88;51.72;;;;;;;5.86;66.65;101391.22;5023731;28;20045;-70
2023/12/06 08:55:51;;;;;;;52.97;49.85;;;;;;;5.87;66.71;101392.03;5025446;28;20659;-71
2023/12/06 08:58:17;;;;;;;57.97;54.38;;;;;;;5.86;66.59;101390.38;5027273;28;20431;-71
2023/12/06 09:00:42;;;;;;;51.97;48.90;;;;;;;5.86;66.46;101391.22;5021259;28;20037;-71
2023/12/06 09:03:08;;;;;;;54.88;51.72;;;;;;;5.85;66.49;101399.47;5025011;28;20041;-72
2023/12/06 09:05:34;;;;;;;57.72;54.63;;;;;;;5.85;66.83;101400.28;5025320;28;20083;-70
2023/12/06 09:08:00;;;;;;;58.03;54.72;;;;;;;5.84;66.88;101398.59;5025771;28;20029;-75
2023/12/06 09:10:26;;;;;;;57.78;53.45;;;;;;;5.84;66.59;101403.97;5024593;28;20626;-71
2023/12/06 09:12:52;;;;;;;52.47;49.25;;;;;;;5.83;66.55;101406.88;5020466;28;20497;-70
2023/12/06 09:15:17;;;;;;;55.70;52.35;;;;;;;5.82;66.49;101407.88;5025868;28;20091;-72
2023/12/06 09:17:43;;;;;;;52.95;49.90;;;;;;;5.81;66.87;101407.06;5026821;28;20529;-73
2023/12/06 09:20:09;;;;;;;51.70;48.75;;;;;;;5.80;66.70;101413.44;5023450;28;20034;-75
2023/12/06 09:22:35;;;;;;;51.90;49.00;;;;;;;5.80;66.89;101413.44;5025814;28;20697;-73
2023/12/06 09:25:04;;;;;;;54.40;51.58;;;;;;;5.80;66.57;101413.44;5026057;28;20030;-75
2023/12/06 09:27:31;;;;;;;55.72;52.60;;;;;;;5.80;66.75;101420.66;5026253;28;20044;-73
2023/12/06 09:29:56;;;;;;;55.58;52.33;;;;;;;5.80;66.63;101418.00;5024244;28;20025;-75
2023/12/06 09:32:23;;;;;;;56.55;53.25;;;;;;;5.80;66.82;101428.72;5022179;28;20362;-72
2023/12/06 09:34:48;;;;;;;54.90;51.75;;;;;;;5.79;66.68;101427.84;5025688;28;20549;-73
2023/12/06 09:37:14;;;;;;;55.03;51.55;;;;;;;5.80;66.42;101431.41;5022675;28;20108;-73
2023/12/06 09:39:40;;;;;;;55.13;51.85;;;;;;;5.80;66.74;101434.91;5023627;28;20113;-73
2023/12/06 09:42:06;;;;;;;54.38;51.17;;;;;;;5.79;66.71;101441.25;5025133;28;20140;-73
2023/12/06 09:44:32;;;;;;;57.30;54.05;;;;;;;5.80;66.73;101450.97;5012803;28;20045;-73
2023/12/06 09:46:58;;;;;;;56.05;52.88;;;;;;;5.81;66.58;101446.44;5030620;28;20144;-73
2023/12/06 09:49:23;;;;;;;60.25;56.72;;;;;;;5.81;66.81;101446.44;5027891;28;20037;-72
2023/12/06 09:51:50;;;;;;;54.85;51.70;;;;;;;5.81;66.44;101447.25;5029762;28;20045;-74
2023/12/06 09:54:15;;;;;;;62.17;58.80;;;;;;;5.82;66.56;101445.41;5028781;28;20362;-74
2023/12/06 09:56:41;;;;;;;56.63;53.33;;;;;;;5.83;66.67;101452.44;5015445;28;20044;-73
2023/12/06 09:59:06;;;;;;;56.53;53.08;;;;;;;5.82;66.84;101448.94;5030020;28;20034;-74
2023/12/06 10:01:31;;;;;;;60.80;57.22;;;;;;;5.83;66.83;101453.28;5027934;28;20038;-73
2023/12/06 10:03:57;;;;;;;59.97;56.97;;;;;;;5.84;66.65;101456.78;5027976;28;20117;-74
2023/12/06 10:06:22;;;;;;;57.05;53.78;;;;;;;5.85;66.97;101453.91;5027133;28;20037;-80
2023/12/06 10:08:53;;;;;;;57.40;53.83;;;;;;;5.85;66.84;101456.59;5026022;28;20029;-72
2023/12/06 10:11:22;;;;;;;53.75;50.58;;;;;;;5.87;66.98;101453.69;5028220;28;20045;-72
2023/12/06 10:13:48;;;;;;;57.30;53.80;;;;;;;5.90;66.95;101452.50;5027715;28;20125;-73
2023/12/06 10:16:21;;;;;;;60.67;56.78;;;;;;;5.90;66.94;101455.19;5011116;28;20136;-72
2023/12/06 10:18:49;;;;;;;58.97;55.20;;;;;;;5.90;66.89;101456.00;5030243;28;20034;-72
2023/12/06 10:21:17;;;;;;;61.33;57.77;;;;;;;5.90;67.07;101457.88;5027670;28;20120;-74
2023/12/06 10:23:57;;;;;;;57.67;54.05;;;;;;;5.92;67.37;101455.81;5030297;28;20033;-71
2023/12/06 10:26:25;;;;;;;58.22;54.67;;;;;;;5.93;66.97;101455.63;5027039;28;20060;-73
2023/12/06 10:28:50;;;;;;;59.53;55.78;;;;;;;5.94;67.03;101457.28;5043840;28;20042;-73
2023/12/06 10:31:16;;;;;;;59.35;55.60;;;;;;;5.95;67.19;101453.63;5029750;28;20107;-72
2023/12/06 10:33:41;;;;;;;61.33;57.38;;;;;;;5.96;67.40;101455.25;5027166;28;20056;-73
2023/12/06 10:36:09;;;;;;;56.70;53.17;;;;;;;5.98;67.48;101457.75;5028113;28;20378;-74
2023/12/06 10:38:37;;;;;;;61.65;57.58;;;;;;;6.00;67.48;101456.53;5024185;28;20084;-75
2023/12/06 10:41:07;;;;;;;57.90;54.38;;;;;;;6.01;67.60;101452.81;5024610;28;20349;-73
2023/12/06 10:43:35;;;;;;;61.83;57.83;;;;;;;6.02;67.52;101445.59;5028988;28;20121;-77
2023/12/06 10:46:00;;;;;;;59.00;54.33;;;;;;;6.04;67.57;101444.38;5025259;28;20038;-75
2023/12/06 10:48:29;;;;;;;63.15;59.45;;;;;;;6.06;67.61;101449.56;5027678;28;20607;-72
2023/12/06 10:50:55;;;;;;;57.50;54.25;;;;;;;6.06;67.60;101444.19;5012529;28;20500;-72
2023/12/06 10:53:21;;;;;;;59.00;55.78;;;;;;;6.07;67.92;101449.38;5026390;28;20128;-77
2023/12/06 10:55:47;;;;;;;55.03;51.83;;;;;;;6.10;67.66;101450.84;5028373;28;20041;-72
2023/12/06 10:58:16;;;;;;;59.60;55.97;;;;;;;6.13;68.07;101444.25;5028544;28;20037;-72
2023/12/06 11:00:42;;;;;;;54.35;51.22;;;;;;;6.13;67.76;101454.97;5028835;28;20524;-71
2023/12/06 11:03:08;;;;;;;54.53;51.35;;;;;;;6.14;67.68;101453.94;5026843;28;20095;-74
2023/12/06 11:05:39;;;;;;;55.55;52.45;;;;;;;6.14;67.97;101449.41;5028750;28;20041;-72
2023/12/06 11:08:07;;;;;;;57.42;54.17;;;;;;;6.15;67.98;101451.06;5027380;28;20037;-73
2023/12/06 11:11:08;;;;;;;64.47;60.27;;;;;;;6.19;67.55;101449.63;5025688;28;20056;-73